createdAt,value
2023-01-09T00:03:35.669Z,2.50
2023-01-09T00:13:35.288Z,1.90
2023-01-09T00:23:34.889Z,1.80
2023-01-09T00:33:34.512Z,1.80
2023-01-09T00:43:33.990Z,1.80
2023-01-09T00:53:33.617Z,1.70
2023-01-09T01:03:33.263Z,1.50
2023-01-09T01:13:33.018Z,2.20
2023-01-09T01:23:32.631Z,1.70
2023-01-09T01:33:32.390Z,1.70
2023-01-09T01:43:31.719Z,1.90
2023-01-09T01:53:31.484Z,1.60
2023-01-09T02:03:31.123Z,1.90
2023-01-09T02:13:30.574Z,2.00
2023-01-09T02:23:30.342Z,1.60
2023-01-09T02:33:29.863Z,1.60
2023-01-09T02:43:29.618Z,1.90
2023-01-09T02:53:29.062Z,1.80
2023-01-09T03:03:28.841Z,1.70
2023-01-09T03:13:28.343Z,1.60
2023-01-09T03:23:28.109Z,1.80
2023-01-09T03:33:27.721Z,1.60
2023-01-09T03:43:27.174Z,1.90
2023-01-09T03:53:26.927Z,1.80
2023-01-09T04:03:26.721Z,2.10
2023-01-09T04:13:26.034Z,1.80
2023-01-09T04:23:20.642Z,2.00
2023-01-09T04:33:20.095Z,1.90
2023-01-09T04:43:19.848Z,1.80
2023-01-09T04:53:19.469Z,2.20
2023-01-09T05:03:19.087Z,2.10
2023-01-09T05:13:18.700Z,1.70
2023-01-09T05:23:18.294Z,2.00
2023-01-09T05:33:17.906Z,1.70
2023-01-09T05:43:17.707Z,1.40
2023-01-09T05:53:17.007Z,1.80
2023-01-09T06:03:16.640Z,2.00
2023-01-09T06:13:16.395Z,2.00
2023-01-09T06:23:16.038Z,2.00
2023-01-09T06:33:15.515Z,1.80
2023-01-09T06:43:15.107Z,2.00
2023-01-09T06:53:14.759Z,1.70
2023-01-09T07:03:14.568Z,1.70
2023-01-09T07:13:13.985Z,1.70
2023-01-09T07:23:13.613Z,1.60
2023-01-09T07:33:13.225Z,1.70
2023-01-09T07:43:12.856Z,1.60
2023-01-09T07:53:12.631Z,1.60
2023-01-09T08:03:12.127Z,1.80
2023-01-09T08:13:11.739Z,1.60
2023-01-09T08:23:11.313Z,1.40
2023-01-09T08:33:05.841Z,1.60
2023-01-09T08:43:05.480Z,1.60
2023-01-09T08:53:05.104Z,1.70
2023-01-09T09:03:04.899Z,1.40
2023-01-09T09:13:04.689Z,1.40
2023-01-09T09:23:04.230Z,1.80
2023-01-09T09:33:03.709Z,1.60
2023-01-09T09:43:03.152Z,1.80
2023-01-09T09:53:02.983Z,1.70
2023-01-09T10:03:02.480Z,1.90
2023-01-09T10:13:02.082Z,1.60
2023-01-09T10:23:01.696Z,1.70
2023-01-09T10:33:01.633Z,2.00
2023-01-09T10:43:00.968Z,1.90
2023-01-09T10:53:00.623Z,2.20
2023-01-09T11:03:00.828Z,2.10
2023-01-09T11:12:59.854Z,2.20
2023-01-09T11:22:59.628Z,2.00
2023-01-09T11:32:59.095Z,2.00
2023-01-09T11:42:58.725Z,2.10
2023-01-09T11:52:53.406Z,1.90
2023-01-09T12:02:53.652Z,2.30
2023-01-09T12:12:52.498Z,1.90
2023-01-09T12:22:52.129Z,2.20
2023-01-09T12:32:51.903Z,2.00
2023-01-09T12:42:51.491Z,1.70
2023-01-09T12:52:51.233Z,2.10
2023-01-09T13:03:00.366Z,2.10
2023-01-09T13:12:50.384Z,1.80
2023-01-09T13:22:50.000Z,2.30
2023-01-09T13:32:49.457Z,2.10
2023-01-09T13:42:49.078Z,2.40
2023-01-09T13:52:48.706Z,2.20
2023-01-09T14:02:48.328Z,2.50
2023-01-09T14:12:48.114Z,2.60
2023-01-09T14:22:55.803Z,2.40
2023-01-09T14:32:47.223Z,2.60
2023-01-09T14:42:46.978Z,2.40
2023-01-09T14:52:46.593Z,2.60
2023-01-09T15:02:46.072Z,2.70
2023-01-09T15:12:45.694Z,2.60
2023-01-09T15:22:40.177Z,3.20
2023-01-09T15:32:40.209Z,3.60
2023-01-09T15:42:39.547Z,2.70
2023-01-09T15:52:39.181Z,3.20
2023-01-09T16:02:38.651Z,2.90
2023-01-09T16:12:38.285Z,2.80
2023-01-09T16:22:37.914Z,3.20
2023-01-09T16:32:37.852Z,3.90
2023-01-09T16:42:37.175Z,3.50
2023-01-09T16:52:36.936Z,3.40
2023-01-09T17:02:36.470Z,3.20
2023-01-09T17:12:36.196Z,4.20
2023-01-09T17:22:35.657Z,3.70
2023-01-09T17:32:35.305Z,4.40
2023-01-09T17:42:35.098Z,5.30
2023-01-09T17:52:34.864Z,4.20
2023-01-09T18:02:34.320Z,5.00
2023-01-09T18:12:33.980Z,5.00
2023-01-09T18:22:33.601Z,4.60
2023-01-09T18:32:33.105Z,8.20
2023-01-09T18:42:32.874Z,4.30
2023-01-09T18:52:32.389Z,4.30
2023-01-09T19:02:26.825Z,4.80
2023-01-09T19:12:26.597Z,4.60
2023-01-09T19:22:26.380Z,6.00
2023-01-09T19:32:25.716Z,5.00
2023-01-09T19:42:25.345Z,4.90
2023-01-09T19:52:25.340Z,5.50
2023-01-09T20:02:24.795Z,4.90
2023-01-09T20:12:24.368Z,5.30
2023-01-09T20:22:24.175Z,5.50
2023-01-09T20:32:23.451Z,5.40
2023-01-09T20:42:23.070Z,5.00
2023-01-09T20:52:22.722Z,3.40
2023-01-09T21:02:22.648Z,5.90
2023-01-09T21:12:21.947Z,5.00
2023-01-09T21:22:21.602Z,3.80
2023-01-09T21:32:21.584Z,5.00
2023-01-09T21:42:21.192Z,5.30
2023-01-09T21:52:15.432Z,5.40
2023-01-09T22:02:15.194Z,5.10
2023-01-09T22:12:14.661Z,5.70
2023-01-09T22:22:14.445Z,5.20
2023-01-09T22:32:13.884Z,5.40
2023-01-09T22:42:13.530Z,4.30
2023-01-09T22:52:13.284Z,4.90
2023-01-09T23:02:13.244Z,5.00
2023-01-09T23:12:12.552Z,4.60
2023-01-09T23:22:12.166Z,4.40
2023-01-09T23:32:11.625Z,6.00
2023-01-09T23:42:11.395Z,6.30
2023-01-09T23:52:10.845Z,6.20
